createdAt,value
2022-12-01T00:01:17.923Z,16.35
2022-12-01T00:03:45.679Z,15.25
2022-12-01T00:06:15.742Z,16.65
2022-12-01T00:09:05.457Z,15.50
2022-12-01T00:11:34.201Z,16.70
2022-12-01T00:14:02.015Z,15.68
2022-12-01T00:16:29.950Z,16.10
2022-12-01T00:18:57.984Z,17.30
2022-12-01T00:21:27.142Z,18.10
2022-12-01T00:23:57.543Z,16.33
2022-12-01T00:26:27.211Z,16.70
2022-12-01T00:28:57.781Z,17.60
2022-12-01T00:31:25.959Z,17.38
2022-12-01T00:33:54.385Z,17.08
2022-12-01T00:36:22.861Z,16.83
2022-12-01T00:38:53.295Z,17.45
2022-12-01T00:41:21.053Z,16.90
2022-12-01T00:43:49.046Z,17.05
2022-12-01T00:46:18.413Z,16.65
2022-12-01T00:48:46.096Z,17.20
2022-12-01T00:51:13.856Z,17.85
2022-12-01T00:53:41.557Z,16.75
2022-12-01T00:56:09.223Z,17.30
2022-12-01T00:58:36.891Z,17.50
2022-12-01T01:01:04.748Z,15.45
2022-12-01T01:03:35.018Z,17.35
2022-12-01T01:06:06.592Z,17.92
2022-12-01T01:08:34.492Z,16.50
2022-12-01T01:11:02.708Z,16.90
2022-12-01T01:13:31.121Z,17.23
2022-12-01T01:16:00.343Z,18.58
2022-12-01T01:18:28.478Z,16.25
2022-12-01T01:20:58.367Z,16.38
2022-12-01T01:23:26.152Z,14.77
2022-12-01T01:25:53.934Z,17.23
2022-12-01T01:28:21.876Z,16.27
2022-12-01T01:30:49.589Z,16.83
2022-12-01T01:33:17.331Z,14.50
2022-12-01T01:35:45.005Z,15.77
2022-12-01T01:38:14.055Z,16.15
2022-12-01T01:40:45.104Z,16.13
2022-12-01T01:43:15.884Z,17.67
2022-12-01T01:45:43.780Z,17.88
2022-12-01T01:48:14.094Z,17.13
2022-12-01T01:50:42.534Z,16.67
2022-12-01T01:53:13.529Z,18.15
2022-12-01T01:55:44.626Z,16.98
2022-12-01T01:58:12.706Z,16.67
2022-12-01T02:00:43.341Z,17.25
2022-12-01T02:03:14.142Z,16.42
2022-12-01T02:05:44.788Z,14.57
2022-12-01T02:08:13.297Z,16.50
2022-12-01T02:10:53.176Z,17.10
2022-12-01T02:13:33.085Z,17.80
2022-12-01T02:16:09.914Z,15.73
2022-12-01T02:18:48.417Z,16.77
2022-12-01T02:21:29.217Z,17.05
2022-12-01T02:24:33.191Z,15.73
2022-12-01T02:27:03.832Z,16.95
2022-12-01T02:29:59.155Z,18.33
2022-12-01T02:32:34.894Z,16.50
2022-12-01T02:35:13.345Z,16.58
2022-12-01T02:37:47.199Z,15.27
2022-12-01T02:40:21.639Z,15.25
2022-12-01T02:42:54.130Z,16.20
2022-12-01T02:45:33.671Z,16.70
2022-12-01T02:48:05.519Z,15.98
2022-12-01T02:50:36.333Z,16.70
2022-12-01T02:53:07.450Z,17.83
2022-12-01T02:55:35.305Z,16.30
2022-12-01T02:58:03.066Z,16.13
2022-12-01T03:00:32.018Z,17.10
2022-12-01T03:03:33.669Z,16.85
2022-12-01T03:06:12.372Z,17.35
2022-12-01T03:08:50.067Z,15.93
2022-12-01T03:11:28.004Z,17.00
2022-12-01T03:14:07.751Z,16.88
2022-12-01T03:16:44.004Z,17.27
2022-12-01T03:19:17.582Z,17.80
2022-12-01T03:21:51.041Z,16.92
2022-12-01T03:24:22.978Z,16.73
2022-12-01T03:26:56.795Z,15.70
2022-12-01T03:29:27.768Z,15.65
2022-12-01T03:31:59.181Z,17.50
2022-12-01T03:34:35.702Z,15.50
2022-12-01T03:37:08.977Z,16.65
2022-12-01T03:39:39.895Z,16.23
2022-12-01T03:42:14.179Z,18.50
2022-12-01T03:44:47.648Z,15.65
2022-12-01T03:47:20.815Z,17.10
2022-12-01T03:49:48.825Z,17.45
2022-12-01T03:52:29.722Z,17.02
2022-12-01T03:55:11.950Z,17.15
2022-12-01T03:57:45.091Z,16.30
2022-12-01T04:00:15.610Z,15.75
2022-12-01T04:02:44.776Z,16.55
2022-12-01T04:05:13.246Z,16.80
2022-12-01T04:07:42.389Z,16.08
2022-12-01T04:10:10.690Z,16.30
2022-12-01T04:12:37.518Z,15.52
2022-12-01T04:15:08.026Z,14.23
2022-12-01T04:17:36.129Z,16.45
2022-12-01T04:20:05.822Z,15.18
2022-12-01T04:22:33.702Z,16.42
2022-12-01T04:25:02.855Z,15.30
2022-12-01T04:27:30.628Z,14.82
2022-12-01T04:29:58.323Z,14.60
2022-12-01T04:32:26.157Z,16.30
2022-12-01T04:34:54.235Z,14.98
2022-12-01T04:37:22.200Z,17.20
2022-12-01T04:39:49.989Z,15.43
2022-12-01T04:42:19.182Z,15.90
2022-12-01T04:44:46.858Z,17.15
2022-12-01T04:47:14.577Z,17.80
2022-12-01T04:49:42.322Z,18.13
2022-12-01T04:52:10.025Z,16.65
2022-12-01T04:54:38.418Z,16.05
2022-12-01T04:57:06.057Z,15.65
2022-12-01T04:59:35.023Z,14.65
2022-12-01T05:02:04.167Z,14.60
2022-12-01T05:04:34.313Z,15.30
2022-12-01T05:07:01.951Z,14.23
2022-12-01T05:09:29.685Z,15.80
2022-12-01T05:11:57.363Z,19.27
2022-12-01T05:14:24.974Z,15.32
2022-12-01T05:16:55.041Z,15.77
2022-12-01T05:19:40.082Z,15.80
2022-12-01T05:22:07.815Z,14.93
2022-12-01T05:24:35.509Z,16.85
2022-12-01T05:27:03.171Z,17.05
2022-12-01T05:29:32.957Z,16.40
2022-12-01T05:32:03.039Z,16.33
2022-12-01T05:34:30.904Z,15.90
2022-12-01T05:36:58.615Z,16.58
2022-12-01T05:39:27.107Z,15.52
2022-12-01T05:41:54.908Z,18.15
2022-12-01T05:44:22.762Z,16.80
2022-12-01T05:46:50.453Z,16.67
2022-12-01T05:49:19.410Z,18.17
2022-12-01T05:51:47.087Z,19.10
2022-12-01T05:54:16.221Z,19.13
2022-12-01T05:56:43.879Z,18.60
2022-12-01T05:59:11.558Z,16.33
2022-12-01T06:01:39.371Z,19.20
2022-12-01T06:04:08.809Z,19.42
2022-12-01T06:06:38.021Z,16.95
2022-12-01T06:09:05.730Z,18.45
2022-12-01T06:11:33.404Z,17.70
2022-12-01T06:14:01.171Z,18.42
2022-12-01T06:16:29.167Z,17.90
2022-12-01T06:18:58.582Z,20.27
2022-12-01T06:21:29.605Z,19.45
2022-12-01T06:23:58.705Z,18.10
2022-12-01T06:26:26.426Z,18.98
2022-12-01T06:28:54.051Z,18.27
2022-12-01T06:31:21.810Z,20.27
2022-12-01T06:33:49.560Z,20.63
2022-12-01T06:36:17.250Z,20.33
2022-12-01T06:38:44.867Z,19.00
2022-12-01T06:41:13.921Z,19.58
2022-12-01T06:43:41.615Z,18.67
2022-12-01T06:46:09.393Z,20.48
2022-12-01T06:48:37.821Z,19.25
2022-12-01T06:51:05.692Z,20.55
2022-12-01T06:53:33.876Z,19.52
2022-12-01T06:56:01.994Z,19.33
2022-12-01T06:58:32.012Z,20.17
2022-12-01T07:01:00.098Z,17.90
2022-12-01T07:03:29.075Z,19.88
2022-12-01T07:05:59.033Z,17.75
2022-12-01T07:08:27.262Z,19.45
2022-12-01T07:10:59.727Z,18.92
2022-12-01T07:13:32.781Z,20.85
2022-12-01T07:16:03.691Z,18.92
2022-12-01T07:18:32.044Z,16.23
2022-12-01T07:21:01.233Z,18.23
2022-12-01T07:23:29.249Z,18.75
2022-12-01T07:26:00.519Z,17.92
2022-12-01T07:28:28.511Z,18.15
2022-12-01T07:31:03.947Z,18.42
2022-12-01T07:33:32.023Z,18.42
2022-12-01T07:36:00.099Z,19.48
2022-12-01T07:38:29.035Z,20.17
2022-12-01T07:40:56.725Z,19.48
2022-12-01T07:43:24.476Z,19.35
2022-12-01T07:45:52.256Z,17.17
2022-12-01T07:48:21.727Z,18.10
2022-12-01T07:50:49.658Z,17.75
2022-12-01T07:53:17.414Z,19.10
2022-12-01T07:55:49.318Z,19.30
2022-12-01T07:58:17.032Z,17.95
2022-12-01T08:00:44.683Z,17.30
2022-12-01T08:03:12.434Z,19.63
2022-12-01T08:05:41.718Z,17.90
2022-12-01T08:08:09.642Z,18.52
2022-12-01T08:10:37.938Z,17.02
2022-12-01T08:13:05.724Z,18.95
2022-12-01T08:15:33.532Z,19.27
2022-12-01T08:18:03.480Z,16.30
2022-12-01T08:20:31.279Z,18.33
2022-12-01T08:23:03.313Z,17.60
2022-12-01T08:25:31.516Z,18.05
2022-12-01T08:28:01.867Z,19.73
2022-12-01T08:30:31.130Z,18.88
2022-12-01T08:32:59.223Z,19.90
2022-12-01T08:35:27.074Z,17.40
2022-12-01T08:37:55.624Z,15.95
2022-12-01T08:40:25.095Z,18.90
2022-12-01T08:42:53.127Z,17.85
2022-12-01T08:45:20.847Z,17.75
2022-12-01T08:47:48.553Z,16.10
2022-12-01T08:50:16.372Z,17.92
2022-12-01T08:52:44.080Z,17.50
2022-12-01T08:55:11.790Z,18.65
2022-12-01T08:57:41.292Z,18.95
2022-12-01T09:00:10.231Z,16.05
2022-12-01T09:02:38.139Z,16.70
2022-12-01T09:05:06.727Z,17.80
2022-12-01T09:07:34.592Z,19.25
2022-12-01T09:10:02.398Z,18.38
2022-12-01T09:12:31.572Z,18.23
2022-12-01T09:15:00.655Z,17.17
2022-12-01T09:17:29.572Z,17.35
2022-12-01T09:19:57.312Z,16.25
2022-12-01T09:22:24.937Z,18.85
2022-12-01T09:24:52.734Z,17.60
2022-12-01T09:27:20.470Z,17.52
2022-12-01T09:29:48.474Z,16.20
2022-12-01T09:32:17.601Z,16.15
2022-12-01T09:34:45.579Z,16.00
2022-12-01T09:37:13.366Z,18.60
2022-12-01T09:39:41.087Z,17.70
2022-12-01T09:42:15.475Z,17.42
2022-12-01T09:44:49.229Z,18.77
2022-12-01T09:47:23.068Z,18.75
2022-12-01T09:49:57.612Z,17.60
2022-12-01T09:52:27.617Z,19.80
2022-12-01T09:54:56.455Z,16.80
2022-12-01T09:57:31.897Z,16.27
2022-12-01T10:00:02.381Z,15.65
2022-12-01T10:02:36.602Z,17.45
2022-12-01T10:05:11.874Z,16.60
2022-12-01T10:07:45.284Z,16.38
2022-12-01T10:10:16.370Z,18.33
2022-12-01T10:12:47.487Z,15.27
2022-12-01T10:15:23.381Z,16.95
2022-12-01T10:18:04.377Z,16.02
2022-12-01T10:20:41.476Z,16.58
2022-12-01T10:23:35.184Z,16.95
2022-12-01T10:26:14.032Z,18.70
2022-12-01T10:28:55.219Z,17.60
2022-12-01T10:31:36.958Z,16.83
2022-12-01T10:34:12.041Z,17.73
2022-12-01T10:36:39.838Z,18.05
2022-12-01T10:39:08.360Z,17.98
2022-12-01T10:41:39.184Z,18.40
2022-12-01T10:44:08.398Z,17.23
2022-12-01T10:46:42.365Z,18.05
2022-12-01T10:49:14.237Z,17.67
2022-12-01T10:51:54.907Z,16.90
2022-12-01T10:54:23.265Z,17.25
2022-12-01T10:56:56.253Z,16.60
2022-12-01T10:59:29.394Z,17.52
2022-12-01T11:01:58.981Z,17.10
2022-12-01T11:04:45.183Z,17.88
2022-12-01T11:07:19.490Z,18.40
2022-12-01T11:10:01.293Z,17.63
2022-12-01T11:12:29.779Z,16.02
2022-12-01T11:14:58.670Z,15.50
2022-12-01T11:17:31.575Z,17.08
2022-12-01T11:20:27.147Z,13.75
2022-12-01T11:22:55.300Z,18.15
2022-12-01T11:25:23.156Z,17.33
2022-12-01T11:27:54.246Z,16.65
2022-12-01T11:30:25.170Z,15.93
2022-12-01T11:32:55.409Z,17.40
2022-12-01T11:35:27.077Z,15.57
2022-12-01T11:40:51.721Z,16.65
2022-12-01T11:43:27.911Z,14.63
2022-12-01T11:45:58.120Z,15.63
2022-12-01T11:48:28.352Z,17.70
2022-12-01T11:51:09.113Z,15.65
2022-12-01T11:53:39.078Z,15.88
2022-12-01T11:56:20.831Z,14.73
2022-12-01T11:58:50.752Z,16.92
2022-12-01T12:01:30.841Z,16.80
2022-12-01T12:04:09.335Z,17.35
2022-12-01T12:06:49.920Z,17.02
2022-12-01T12:09:33.146Z,16.63
2022-12-01T12:12:13.240Z,15.95
2022-12-01T12:14:51.575Z,16.05
2022-12-01T12:17:31.840Z,17.23
2022-12-01T12:20:16.647Z,15.25
2022-12-01T12:22:58.572Z,17.45
2022-12-01T12:25:39.508Z,16.88
2022-12-01T12:28:25.760Z,15.60
2022-12-01T12:31:03.547Z,14.57
2022-12-01T12:33:52.349Z,16.70
2022-12-01T12:36:31.375Z,16.52
2022-12-01T12:39:21.175Z,16.30
2022-12-01T12:41:53.399Z,15.40
2022-12-01T12:44:37.896Z,14.27
2022-12-01T12:47:16.226Z,15.73
2022-12-01T12:49:49.453Z,15.73
2022-12-01T12:52:21.318Z,15.40
2022-12-01T12:54:53.440Z,15.80
2022-12-01T12:57:28.436Z,15.10
2022-12-01T13:00:02.268Z,15.52
2022-12-01T13:02:37.377Z,15.32
2022-12-01T13:05:11.437Z,14.02
2022-12-01T13:07:47.230Z,15.15
2022-12-01T13:10:29.770Z,14.63
2022-12-01T13:13:05.624Z,14.15
2022-12-01T13:15:36.484Z,14.40
2022-12-01T13:18:16.248Z,14.60
2022-12-01T13:20:45.205Z,14.68
2022-12-01T13:23:17.750Z,14.20
2022-12-01T13:25:52.233Z,14.25
2022-12-01T13:28:24.590Z,15.05
2022-12-01T13:31:01.998Z,13.68
2022-12-01T13:33:30.585Z,15.57
2022-12-01T13:36:23.010Z,15.15
2022-12-01T13:38:58.160Z,15.45
2022-12-01T13:41:30.504Z,14.95
2022-12-01T13:44:01.533Z,15.90
2022-12-01T13:46:33.334Z,14.27
2022-12-01T13:49:02.825Z,14.00
2022-12-01T13:52:08.861Z,14.55
2022-12-01T13:54:38.291Z,14.90
2022-12-01T13:57:13.461Z,15.40
2022-12-01T14:00:03.223Z,15.20
2022-12-01T14:02:33.830Z,15.52
2022-12-01T14:05:35.048Z,14.00
2022-12-01T14:08:21.315Z,14.50
2022-12-01T14:10:55.939Z,14.40
2022-12-01T14:13:26.934Z,14.55
2022-12-01T14:15:57.413Z,14.38
2022-12-01T14:18:35.483Z,15.98
2022-12-01T14:21:06.809Z,14.50
2022-12-01T14:23:36.422Z,15.90
2022-12-01T14:26:14.288Z,16.02
2022-12-01T14:29:18.734Z,13.50
2022-12-01T14:32:20.475Z,16.92
2022-12-01T14:34:54.822Z,14.70
2022-12-01T14:37:25.971Z,15.52
2022-12-01T14:39:59.589Z,16.45
2022-12-01T14:42:56.507Z,14.95
2022-12-01T14:45:28.926Z,15.95
2022-12-01T14:48:04.812Z,14.75
2022-12-01T14:50:46.389Z,14.90
2022-12-01T14:53:23.908Z,14.48
2022-12-01T14:55:56.319Z,14.70
2022-12-01T14:58:27.710Z,15.70
2022-12-01T15:01:00.519Z,14.35
2022-12-01T15:03:33.036Z,14.45
2022-12-01T15:06:02.419Z,14.05
2022-12-01T15:11:23.353Z,14.13
2022-12-01T15:13:53.476Z,14.63
2022-12-01T15:16:23.985Z,15.63
2022-12-01T15:18:52.613Z,16.08
2022-12-01T15:21:24.422Z,14.95
2022-12-01T15:23:57.528Z,13.90
2022-12-01T15:26:27.591Z,15.07
2022-12-01T15:29:16.442Z,14.60
2022-12-01T15:31:47.304Z,14.93
2022-12-01T15:34:17.382Z,15.07
2022-12-01T15:36:48.292Z,15.50
2022-12-01T15:39:20.113Z,14.57
2022-12-01T15:41:53.852Z,13.48
2022-12-01T15:44:27.051Z,14.55
2022-12-01T15:46:55.173Z,13.48
2022-12-01T15:49:29.643Z,13.82
2022-12-01T15:52:08.406Z,13.18
2022-12-01T15:54:38.895Z,13.98
2022-12-01T15:57:07.755Z,13.40
2022-12-01T15:59:40.067Z,14.13
2022-12-01T16:02:22.558Z,15.73
2022-12-01T16:04:50.860Z,12.80
2022-12-01T16:07:20.434Z,14.27
2022-12-01T16:09:58.882Z,14.90
2022-12-01T16:12:28.559Z,14.15
2022-12-01T16:15:04.172Z,13.60
2022-12-01T16:17:43.317Z,15.52
2022-12-01T16:20:26.905Z,16.20
2022-12-01T16:22:59.292Z,15.50
2022-12-01T16:25:34.874Z,17.27
2022-12-01T16:28:04.111Z,14.75
2022-12-01T16:30:38.290Z,15.43
2022-12-01T16:33:14.653Z,15.55
2022-12-01T16:35:42.682Z,19.25
2022-12-01T16:38:16.273Z,14.75
2022-12-01T16:40:45.042Z,15.32
2022-12-01T16:43:15.889Z,15.48
2022-12-01T16:45:44.570Z,17.17
2022-12-01T16:48:13.376Z,16.45
2022-12-01T16:50:41.573Z,17.30
2022-12-01T16:53:11.556Z,16.50
2022-12-01T16:55:44.769Z,17.15
2022-12-01T16:58:12.665Z,16.02
2022-12-01T17:00:41.915Z,14.82
2022-12-01T17:03:12.508Z,15.98
2022-12-01T17:05:40.562Z,15.85
2022-12-01T17:08:08.551Z,17.15
2022-12-01T17:10:40.775Z,15.48
2022-12-01T17:13:10.284Z,15.70
2022-12-01T17:15:44.896Z,16.20
2022-12-01T17:18:14.172Z,14.25
2022-12-01T17:20:42.782Z,16.73
2022-12-01T17:23:11.070Z,16.15
2022-12-01T17:25:41.904Z,16.10
2022-12-01T17:28:11.111Z,14.52
2022-12-01T17:30:39.224Z,13.90
2022-12-01T17:33:07.225Z,14.73
2022-12-01T17:35:35.126Z,16.38
2022-12-01T17:38:03.092Z,16.30
2022-12-01T17:40:31.014Z,15.23
2022-12-01T17:42:59.074Z,15.88
2022-12-01T17:45:28.330Z,15.30
2022-12-01T17:47:56.611Z,15.18
2022-12-01T17:50:24.549Z,16.60
2022-12-01T17:52:53.838Z,16.73
2022-12-01T17:55:21.689Z,16.80
2022-12-01T17:57:49.515Z,15.30
2022-12-01T18:00:18.402Z,17.55
2022-12-01T18:02:47.999Z,15.65
2022-12-01T18:05:16.006Z,14.85
2022-12-01T18:07:43.941Z,14.95
2022-12-01T18:10:12.156Z,16.35
2022-12-01T18:12:40.907Z,16.48
2022-12-01T18:15:09.897Z,13.60
2022-12-01T18:17:37.792Z,14.77
2022-12-01T18:20:08.919Z,14.80
2022-12-01T18:22:36.787Z,14.60
2022-12-01T18:25:07.015Z,15.40
2022-12-01T18:27:34.953Z,16.45
2022-12-01T18:30:02.891Z,15.32
2022-12-01T18:32:30.740Z,15.35
2022-12-01T18:34:58.785Z,16.58
2022-12-01T18:37:28.060Z,16.85
2022-12-01T18:39:56.310Z,16.20
2022-12-01T18:42:24.311Z,16.95
2022-12-01T18:44:52.411Z,15.15
2022-12-01T18:47:20.466Z,14.52
2022-12-01T18:49:48.483Z,16.05
2022-12-01T18:52:16.671Z,16.27
2022-12-01T18:54:48.115Z,13.80
2022-12-01T18:57:16.362Z,15.75
2022-12-01T18:59:44.170Z,13.70
2022-12-01T19:02:12.125Z,14.82
2022-12-01T19:04:39.986Z,15.82
2022-12-01T19:07:07.894Z,16.42
2022-12-01T19:09:35.717Z,16.02
2022-12-01T19:12:05.187Z,15.13
2022-12-01T19:14:33.056Z,14.27
2022-12-01T19:17:00.932Z,14.27
2022-12-01T19:19:30.897Z,14.70
2022-12-01T19:22:02.208Z,16.33
2022-12-01T19:24:29.910Z,16.33
2022-12-01T19:26:57.691Z,15.10
2022-12-01T19:29:26.988Z,16.08
2022-12-01T19:31:54.942Z,15.70
2022-12-01T19:34:22.936Z,16.80
2022-12-01T19:36:53.607Z,15.05
2022-12-01T19:39:21.436Z,15.32
2022-12-01T19:41:49.252Z,15.77
2022-12-01T19:44:17.093Z,15.70
2022-12-01T19:46:46.384Z,15.18
2022-12-01T19:49:14.167Z,16.02
2022-12-01T19:51:42.609Z,15.93
2022-12-01T19:54:14.715Z,15.10
2022-12-01T19:56:42.927Z,16.58
2022-12-01T19:59:13.051Z,16.67
2022-12-01T20:01:41.124Z,14.95
2022-12-01T20:04:10.501Z,14.80
2022-12-01T20:06:38.755Z,15.75
2022-12-01T20:09:08.906Z,14.93
2022-12-01T20:11:37.410Z,16.15
2022-12-01T20:14:07.602Z,16.60
2022-12-01T20:16:35.514Z,16.38
2022-12-01T20:19:05.086Z,17.10
2022-12-01T20:21:36.234Z,16.60
2022-12-01T20:24:06.637Z,17.23
2022-12-01T20:26:37.561Z,17.20
2022-12-01T20:29:07.652Z,17.00
2022-12-01T20:31:35.977Z,16.30
2022-12-01T20:34:07.159Z,17.00
2022-12-01T20:36:36.914Z,17.15
2022-12-01T20:39:06.410Z,17.13
2022-12-01T20:41:34.420Z,16.00
2022-12-01T20:44:07.235Z,17.00
2022-12-01T20:46:36.001Z,17.70
2022-12-01T20:49:05.181Z,16.88
2022-12-01T20:51:33.603Z,16.50
2022-12-01T20:54:27.388Z,16.30
2022-12-01T20:56:51.889Z,16.20
2022-12-01T20:59:19.635Z,16.33
2022-12-01T21:01:47.445Z,17.58
2022-12-01T21:04:15.280Z,17.77
2022-12-01T21:06:43.294Z,16.88
2022-12-01T21:09:13.111Z,16.63
2022-12-01T21:12:03.453Z,16.67
2022-12-01T21:14:36.971Z,18.13
2022-12-01T21:17:13.792Z,17.15
2022-12-01T21:19:51.117Z,16.35
2022-12-01T21:22:20.105Z,16.50
2022-12-01T21:24:53.002Z,17.98
2022-12-01T21:27:20.885Z,17.42
2022-12-01T21:29:51.023Z,16.95
2022-12-01T21:32:20.410Z,16.77
2022-12-01T21:34:49.357Z,16.48
2022-12-01T21:37:22.155Z,16.00
2022-12-01T21:39:52.884Z,18.35
2022-12-01T21:42:23.055Z,16.35
2022-12-01T21:44:51.138Z,18.85
2022-12-01T21:47:21.354Z,18.15
2022-12-01T21:49:52.051Z,16.95
2022-12-01T21:52:21.724Z,18.20
2022-12-01T21:54:52.274Z,18.33
2022-12-01T21:57:42.839Z,18.38
2022-12-01T22:00:29.901Z,19.08
2022-12-01T22:03:26.140Z,19.08
2022-12-01T22:06:27.639Z,15.80
2022-12-01T22:08:50.019Z,17.55
2022-12-01T22:11:21.953Z,19.92
2022-12-01T22:13:53.433Z,17.35
2022-12-01T22:16:23.135Z,17.40
2022-12-01T22:18:52.926Z,17.45
2022-12-01T22:21:34.015Z,17.50
2022-12-01T22:24:30.417Z,17.88
2022-12-01T22:27:13.034Z,18.52
2022-12-01T22:29:44.325Z,17.95
2022-12-01T22:32:44.492Z,17.58
2022-12-01T22:35:23.790Z,17.75
2022-12-01T22:37:53.132Z,17.23
2022-12-01T22:40:39.707Z,18.13
2022-12-01T22:43:28.054Z,17.27
2022-12-01T22:46:30.657Z,18.17
2022-12-01T22:49:00.123Z,17.67
2022-12-01T22:51:37.078Z,16.63
2022-12-01T22:54:25.729Z,18.10
2022-12-01T22:57:01.727Z,17.90
2022-12-01T22:59:34.774Z,16.98
2022-12-01T23:02:15.380Z,16.80
2022-12-01T23:04:46.040Z,19.67
2022-12-01T23:07:28.864Z,18.33
2022-12-01T23:09:59.536Z,17.80
2022-12-01T23:12:29.816Z,18.73
2022-12-01T23:15:01.544Z,17.42
2022-12-01T23:17:32.095Z,17.27
2022-12-01T23:20:25.802Z,19.38
2022-12-01T23:22:54.995Z,19.58
2022-12-01T23:25:23.936Z,19.90
2022-12-01T23:27:53.564Z,19.83
2022-12-01T23:30:23.368Z,19.85
2022-12-01T23:33:00.294Z,18.25
2022-12-01T23:35:27.909Z,18.15
2022-12-01T23:37:55.686Z,18.63
2022-12-01T23:40:30.196Z,18.17
2022-12-01T23:42:59.906Z,17.70
2022-12-01T23:45:29.265Z,19.73
2022-12-01T23:47:57.737Z,17.65
2022-12-01T23:50:27.398Z,18.85
2022-12-01T23:52:55.239Z,17.65
2022-12-01T23:55:26.021Z,20.05
2022-12-01T23:57:54.278Z,20.08
